<?xml version="1.0" encoding="UTF-8" standalone="no" ?>
<gpx xmlns="http://www.topografix.com/GPX/1/1" xmlns:xsi="http://www.w3.org/2001/XMLSchema-instance" xsi:schemaLocation="http://www.topografix.com/GPX/1/1 http://www.topografix.com/GPX/1/1/gpx.xsd" version="1.1" creator="VisuGPX - https://www.visugpx.com">
  <metadata>
    <name>744674-pkol$*</name>
  </metadata>
  <trk>
    <name><![CDATA[744674-pkol$*]]></name>
    <trkseg>
      <trkpt lat="44.69383" lon="5.48566">
        <ele>565</ele>
        <time>2020-03-29T12:27:41Z</time>
      </trkpt>
      <trkpt lat="44.69458" lon="5.48545">
        <ele>577</ele>
        <time>2020-03-29T12:28:07Z</time>
      </trkpt>
      <trkpt lat="44.69551" lon="5.4853">
        <ele>590</ele>
        <time>2020-03-29T12:28:38Z</time>
      </trkpt>
      <trkpt lat="44.69605" lon="5.48488">
        <ele>598</ele>
        <time>2020-03-29T12:28:58Z</time>
      </trkpt>
      <trkpt lat="44.69634" lon="5.48399">
        <ele>602</ele>
        <time>2020-03-29T12:29:22Z</time>
      </trkpt>
      <trkpt lat="44.69684" lon="5.48415">
        <ele>610</ele>
        <time>2020-03-29T12:29:39Z</time>
      </trkpt>
      <trkpt lat="44.69724" lon="5.48478">
        <ele>621</ele>
        <time>2020-03-29T12:29:59Z</time>
      </trkpt>
      <trkpt lat="44.69749" lon="5.48452">
        <ele>628</ele>
        <time>2020-03-29T12:30:09Z</time>
      </trkpt>
      <trkpt lat="44.69774" lon="5.48535">
        <ele>636</ele>
        <time>2020-03-29T12:30:30Z</time>
      </trkpt>
      <trkpt lat="44.69803" lon="5.4854">
        <ele>647</ele>
        <time>2020-03-29T12:30:40Z</time>
      </trkpt>
      <trkpt lat="44.69799" lon="5.48452">
        <ele>649</ele>
        <time>2020-03-29T12:31:01Z</time>
      </trkpt>
      <trkpt lat="44.6986" lon="5.48436">
        <ele>672</ele>
        <time>2020-03-29T12:31:22Z</time>
      </trkpt>
      <trkpt lat="44.69846" lon="5.48504">
        <ele>665</ele>
        <time>2020-03-29T12:31:39Z</time>
      </trkpt>
      <trkpt lat="44.6995" lon="5.48441">
        <ele>698</ele>
        <time>2020-03-29T12:32:16Z</time>
      </trkpt>
      <trkpt lat="44.69882" lon="5.483">
        <ele>690</ele>
        <time>2020-03-29T12:32:57Z</time>
      </trkpt>
      <trkpt lat="44.69932" lon="5.48352">
        <ele>707</ele>
        <time>2020-03-29T12:33:18Z</time>
      </trkpt>
      <trkpt lat="44.69993" lon="5.48373">
        <ele>716</ele>
        <time>2020-03-29T12:33:38Z</time>
      </trkpt>
      <trkpt lat="44.69961" lon="5.48326">
        <ele>717</ele>
        <time>2020-03-29T12:33:54Z</time>
      </trkpt>
      <trkpt lat="44.70047" lon="5.48311">
        <ele>729</ele>
        <time>2020-03-29T12:34:23Z</time>
      </trkpt>
      <trkpt lat="44.70098" lon="5.48363">
        <ele>735</ele>
        <time>2020-03-29T12:34:44Z</time>
      </trkpt>
      <trkpt lat="44.70162" lon="5.48399">
        <ele>752</ele>
        <time>2020-03-29T12:35:07Z</time>
      </trkpt>
      <trkpt lat="44.70198" lon="5.48347">
        <ele>743</ele>
        <time>2020-03-29T12:35:24Z</time>
      </trkpt>
      <trkpt lat="44.70227" lon="5.48352">
        <ele>751</ele>
        <time>2020-03-29T12:35:34Z</time>
      </trkpt>
      <trkpt lat="44.70266" lon="5.48331">
        <ele>752</ele>
        <time>2020-03-29T12:35:48Z</time>
      </trkpt>
      <trkpt lat="44.70292" lon="5.48326">
        <ele>758</ele>
        <time>2020-03-29T12:35:56Z</time>
      </trkpt>
      <trkpt lat="44.70302" lon="5.48222">
        <ele>732</ele>
        <time>2020-03-29T12:36:21Z</time>
      </trkpt>
      <trkpt lat="44.70328" lon="5.48284">
        <ele>755</ele>
        <time>2020-03-29T12:36:38Z</time>
      </trkpt>
      <trkpt lat="44.70331" lon="5.48352">
        <ele>778</ele>
        <time>2020-03-29T12:36:55Z</time>
      </trkpt>
      <trkpt lat="44.70328" lon="5.4841">
        <ele>797</ele>
        <time>2020-03-29T12:37:08Z</time>
      </trkpt>
      <trkpt lat="44.70353" lon="5.48472">
        <ele>819</ele>
        <time>2020-03-29T12:37:25Z</time>
      </trkpt>
      <trkpt lat="44.70396" lon="5.4853">
        <ele>837</ele>
        <time>2020-03-29T12:37:45Z</time>
      </trkpt>
      <trkpt lat="44.70443" lon="5.48587">
        <ele>853</ele>
        <time>2020-03-29T12:38:06Z</time>
      </trkpt>
      <trkpt lat="44.70478" lon="5.48655">
        <ele>880</ele>
        <time>2020-03-29T12:38:26Z</time>
      </trkpt>
      <trkpt lat="44.70529" lon="5.48707">
        <ele>902</ele>
        <time>2020-03-29T12:38:47Z</time>
      </trkpt>
      <trkpt lat="44.70619" lon="5.4876">
        <ele>925</ele>
        <time>2020-03-29T12:39:19Z</time>
      </trkpt>
      <trkpt lat="44.7064" lon="5.48707">
        <ele>899</ele>
        <time>2020-03-29T12:39:34Z</time>
      </trkpt>
      <trkpt lat="44.70723" lon="5.48718">
        <ele>920</ele>
        <time>2020-03-29T12:40:02Z</time>
      </trkpt>
      <trkpt lat="44.70791" lon="5.48744">
        <ele>949</ele>
        <time>2020-03-29T12:40:25Z</time>
      </trkpt>
      <trkpt lat="44.70798" lon="5.48692">
        <ele>949</ele>
        <time>2020-03-29T12:40:38Z</time>
      </trkpt>
      <trkpt lat="44.7082" lon="5.48629">
        <ele>972</ele>
        <time>2020-03-29T12:40:54Z</time>
      </trkpt>
      <trkpt lat="44.70784" lon="5.48566">
        <ele>965</ele>
        <time>2020-03-29T12:41:13Z</time>
      </trkpt>
      <trkpt lat="44.70787" lon="5.48499">
        <ele>984</ele>
        <time>2020-03-29T12:41:29Z</time>
      </trkpt>
      <trkpt lat="44.70827" lon="5.48462">
        <ele>1011</ele>
        <time>2020-03-29T12:41:45Z</time>
      </trkpt>
      <trkpt lat="44.70845" lon="5.4842">
        <ele>1018</ele>
        <time>2020-03-29T12:41:57Z</time>
      </trkpt>
      <trkpt lat="44.7087" lon="5.48514">
        <ele>1033</ele>
        <time>2020-03-29T12:42:21Z</time>
      </trkpt>
      <trkpt lat="44.70917" lon="5.48566">
        <ele>1050</ele>
        <time>2020-03-29T12:42:41Z</time>
      </trkpt>
      <trkpt lat="44.70989" lon="5.48639">
        <ele>1083</ele>
        <time>2020-03-29T12:43:10Z</time>
      </trkpt>
      <trkpt lat="44.7096" lon="5.48525">
        <ele>1075</ele>
        <time>2020-03-29T12:43:39Z</time>
      </trkpt>
      <trkpt lat="44.70949" lon="5.48436">
        <ele>1059</ele>
        <time>2020-03-29T12:44:00Z</time>
      </trkpt>
      <trkpt lat="44.70992" lon="5.48499">
        <ele>1087</ele>
        <time>2020-03-29T12:44:21Z</time>
      </trkpt>
      <trkpt lat="44.71028" lon="5.48514">
        <ele>1091</ele>
        <time>2020-03-29T12:44:34Z</time>
      </trkpt>
      <trkpt lat="44.7105" lon="5.48592">
        <ele>1111</ele>
        <time>2020-03-29T12:44:53Z</time>
      </trkpt>
      <trkpt lat="44.71111" lon="5.48639">
        <ele>1129</ele>
        <time>2020-03-29T12:45:17Z</time>
      </trkpt>
      <trkpt lat="44.71136" lon="5.48697">
        <ele>1143</ele>
        <time>2020-03-29T12:45:33Z</time>
      </trkpt>
      <trkpt lat="44.71208" lon="5.48686">
        <ele>1142</ele>
        <time>2020-03-29T12:45:57Z</time>
      </trkpt>
      <trkpt lat="44.7124" lon="5.48775">
        <ele>1168</ele>
        <time>2020-03-29T12:46:21Z</time>
      </trkpt>
      <trkpt lat="44.71316" lon="5.48786">
        <ele>1185</ele>
        <time>2020-03-29T12:46:46Z</time>
      </trkpt>
      <trkpt lat="44.71362" lon="5.48786">
        <ele>1193</ele>
        <time>2020-03-29T12:47:01Z</time>
      </trkpt>
      <trkpt lat="44.71431" lon="5.4878">
        <ele>1207</ele>
        <time>2020-03-29T12:47:24Z</time>
      </trkpt>
      <trkpt lat="44.71481" lon="5.48765">
        <ele>1221</ele>
        <time>2020-03-29T12:47:42Z</time>
      </trkpt>
      <trkpt lat="44.7151" lon="5.48733">
        <ele>1224</ele>
        <time>2020-03-29T12:47:54Z</time>
      </trkpt>
      <trkpt lat="44.71546" lon="5.48686">
        <ele>1228</ele>
        <time>2020-03-29T12:48:10Z</time>
      </trkpt>
      <trkpt lat="44.716" lon="5.48582">
        <ele>1234</ele>
        <time>2020-03-29T12:48:41Z</time>
      </trkpt>
      <trkpt lat="44.71592" lon="5.4866">
        <ele>1246</ele>
        <time>2020-03-29T12:48:59Z</time>
      </trkpt>
      <trkpt lat="44.71625" lon="5.48608">
        <ele>1255</ele>
        <time>2020-03-29T12:49:16Z</time>
      </trkpt>
      <trkpt lat="44.71625" lon="5.48676">
        <ele>1269</ele>
        <time>2020-03-29T12:49:32Z</time>
      </trkpt>
      <trkpt lat="44.7165" lon="5.48613">
        <ele>1272</ele>
        <time>2020-03-29T12:49:49Z</time>
      </trkpt>
      <trkpt lat="44.71653" lon="5.48686">
        <ele>1288</ele>
        <time>2020-03-29T12:50:07Z</time>
      </trkpt>
      <trkpt lat="44.71686" lon="5.48587">
        <ele>1292</ele>
        <time>2020-03-29T12:50:32Z</time>
      </trkpt>
      <trkpt lat="44.71686" lon="5.48634">
        <ele>1300</ele>
        <time>2020-03-29T12:50:44Z</time>
      </trkpt>
      <trkpt lat="44.71722" lon="5.48577">
        <ele>1316</ele>
        <time>2020-03-29T12:51:02Z</time>
      </trkpt>
      <trkpt lat="44.71704" lon="5.48681">
        <ele>1320</ele>
        <time>2020-03-29T12:51:27Z</time>
      </trkpt>
      <trkpt lat="44.71754" lon="5.48655">
        <ele>1350</ele>
        <time>2020-03-29T12:51:45Z</time>
      </trkpt>
      <trkpt lat="44.7174" lon="5.48686">
        <ele>1344</ele>
        <time>2020-03-29T12:51:54Z</time>
      </trkpt>
      <trkpt lat="44.71786" lon="5.48592">
        <ele>1363</ele>
        <time>2020-03-29T12:52:21Z</time>
      </trkpt>
      <trkpt lat="44.7183" lon="5.48425">
        <ele>1391</ele>
        <time>2020-03-29T12:53:03Z</time>
      </trkpt>
      <trkpt lat="44.71844" lon="5.48331">
        <ele>1384</ele>
        <time>2020-03-29T12:53:26Z</time>
      </trkpt>
      <trkpt lat="44.71855" lon="5.48389">
        <ele>1397</ele>
        <time>2020-03-29T12:53:40Z</time>
      </trkpt>
      <trkpt lat="44.71891" lon="5.48331">
        <ele>1383</ele>
        <time>2020-03-29T12:53:58Z</time>
      </trkpt>
      <trkpt lat="44.71887" lon="5.48425">
        <ele>1418</ele>
        <time>2020-03-29T12:54:20Z</time>
      </trkpt>
      <trkpt lat="44.71923" lon="5.48483">
        <ele>1446</ele>
        <time>2020-03-29T12:54:39Z</time>
      </trkpt>
      <trkpt lat="44.71945" lon="5.4854">
        <ele>1471</ele>
        <time>2020-03-29T12:54:54Z</time>
      </trkpt>
      <trkpt lat="44.71998" lon="5.48467">
        <ele>1479</ele>
        <time>2020-03-29T12:55:19Z</time>
      </trkpt>
      <trkpt lat="44.72056" lon="5.48431">
        <ele>1488</ele>
        <time>2020-03-29T12:55:40Z</time>
      </trkpt>
      <trkpt lat="44.72038" lon="5.48488">
        <ele>1510</ele>
        <time>2020-03-29T12:55:55Z</time>
      </trkpt>
      <trkpt lat="44.72085" lon="5.48478">
        <ele>1528</ele>
        <time>2020-03-29T12:56:11Z</time>
      </trkpt>
      <trkpt lat="44.72059" lon="5.48551">
        <ele>1545</ele>
        <time>2020-03-29T12:56:30Z</time>
      </trkpt>
      <trkpt lat="44.72088" lon="5.4853">
        <ele>1552</ele>
        <time>2020-03-29T12:56:41Z</time>
      </trkpt>
      <trkpt lat="44.72095" lon="5.48572">
        <ele>1570</ele>
        <time>2020-03-29T12:56:51Z</time>
      </trkpt>
      <trkpt lat="44.72117" lon="5.48525">
        <ele>1559</ele>
        <time>2020-03-29T12:57:04Z</time>
      </trkpt>
      <trkpt lat="44.72131" lon="5.48566">
        <ele>1579</ele>
        <time>2020-03-29T12:57:15Z</time>
      </trkpt>
      <trkpt lat="44.722" lon="5.48499">
        <ele>1579</ele>
        <time>2020-03-29T12:57:43Z</time>
      </trkpt>
      <trkpt lat="44.72178" lon="5.48572">
        <ele>1596</ele>
        <time>2020-03-29T12:58:02Z</time>
      </trkpt>
      <trkpt lat="44.72207" lon="5.48572">
        <ele>1607</ele>
        <time>2020-03-29T12:58:12Z</time>
      </trkpt>
      <trkpt lat="44.72164" lon="5.48619">
        <ele>1609</ele>
        <time>2020-03-29T12:58:30Z</time>
      </trkpt>
      <trkpt lat="44.72113" lon="5.48671">
        <ele>1621</ele>
        <time>2020-03-29T12:58:51Z</time>
      </trkpt>
      <trkpt lat="44.72081" lon="5.48723">
        <ele>1635</ele>
        <time>2020-03-29T12:59:07Z</time>
      </trkpt>
      <trkpt lat="44.72113" lon="5.48718">
        <ele>1641</ele>
        <time>2020-03-29T12:59:18Z</time>
      </trkpt>
      <trkpt lat="44.72092" lon="5.4876">
        <ele>1654</ele>
        <time>2020-03-29T12:59:30Z</time>
      </trkpt>
      <trkpt lat="44.72131" lon="5.4876">
        <ele>1664</ele>
        <time>2020-03-29T12:59:43Z</time>
      </trkpt>
      <trkpt lat="44.72038" lon="5.48833">
        <ele>1635</ele>
        <time>2020-03-29T13:00:19Z</time>
      </trkpt>
      <trkpt lat="44.72092" lon="5.48827">
        <ele>1681</ele>
        <time>2020-03-29T13:00:37Z</time>
      </trkpt>
      <trkpt lat="44.72074" lon="5.48895">
        <ele>1683</ele>
        <time>2020-03-29T13:00:54Z</time>
      </trkpt>
      <trkpt lat="44.7211" lon="5.48885">
        <ele>1703</ele>
        <time>2020-03-29T13:01:06Z</time>
      </trkpt>
      <trkpt lat="44.72106" lon="5.48958">
        <ele>1711</ele>
        <time>2020-03-29T13:01:23Z</time>
      </trkpt>
      <trkpt lat="44.72146" lon="5.48921">
        <ele>1731</ele>
        <time>2020-03-29T13:01:39Z</time>
      </trkpt>
      <trkpt lat="44.72196" lon="5.48911">
        <ele>1748</ele>
        <time>2020-03-29T13:01:56Z</time>
      </trkpt>
      <trkpt lat="44.72275" lon="5.4889">
        <ele>1762</ele>
        <time>2020-03-29T13:02:23Z</time>
      </trkpt>
      <trkpt lat="44.72351" lon="5.4889">
        <ele>1775</ele>
        <time>2020-03-29T13:02:48Z</time>
      </trkpt>
      <trkpt lat="44.7243" lon="5.49">
        <ele>1776</ele>
        <time>2020-03-29T13:03:25Z</time>
      </trkpt>
      <trkpt lat="44.72516" lon="5.49031">
        <ele>1772</ele>
        <time>2020-03-29T13:03:55Z</time>
      </trkpt>
      <trkpt lat="44.72591" lon="5.49">
        <ele>1766</ele>
        <time>2020-03-29T13:04:21Z</time>
      </trkpt>
      <trkpt lat="44.7267" lon="5.48989">
        <ele>1766</ele>
        <time>2020-03-29T13:04:48Z</time>
      </trkpt>
      <trkpt lat="44.72771" lon="5.49026">
        <ele>1763</ele>
        <time>2020-03-29T13:05:22Z</time>
      </trkpt>
      <trkpt lat="44.72782" lon="5.48968">
        <ele>1764</ele>
        <time>2020-03-29T13:05:37Z</time>
      </trkpt>
      <trkpt lat="44.72775" lon="5.48838">
        <ele>1762</ele>
        <time>2020-03-29T13:06:08Z</time>
      </trkpt>
      <trkpt lat="44.72767" lon="5.48733">
        <ele>1753</ele>
        <time>2020-03-29T13:06:33Z</time>
      </trkpt>
      <trkpt lat="44.72796" lon="5.48634">
        <ele>1757</ele>
        <time>2020-03-29T13:06:58Z</time>
      </trkpt>
      <trkpt lat="44.7281" lon="5.4853">
        <ele>1767</ele>
        <time>2020-03-29T13:07:23Z</time>
      </trkpt>
      <trkpt lat="44.7281" lon="5.48405">
        <ele>1787</ele>
        <time>2020-03-29T13:07:53Z</time>
      </trkpt>
      <trkpt lat="44.72828" lon="5.483">
        <ele>1787</ele>
        <time>2020-03-29T13:08:18Z</time>
      </trkpt>
      <trkpt lat="44.72933" lon="5.48243">
        <ele>1827</ele>
        <time>2020-03-29T13:08:56Z</time>
      </trkpt>
      <trkpt lat="44.73019" lon="5.48196">
        <ele>1851</ele>
        <time>2020-03-29T13:09:27Z</time>
      </trkpt>
      <trkpt lat="44.73055" lon="5.48164">
        <ele>1856</ele>
        <time>2020-03-29T13:09:41Z</time>
      </trkpt>
      <trkpt lat="44.73094" lon="5.48117">
        <ele>1862</ele>
        <time>2020-03-29T13:09:58Z</time>
      </trkpt>
      <trkpt lat="44.73123" lon="5.47992">
        <ele>1885</ele>
        <time>2020-03-29T13:10:29Z</time>
      </trkpt>
      <trkpt lat="44.73166" lon="5.47992">
        <ele>1884</ele>
        <time>2020-03-29T13:10:43Z</time>
      </trkpt>
      <trkpt lat="44.73245" lon="5.48018">
        <ele>1884</ele>
        <time>2020-03-29T13:11:11Z</time>
      </trkpt>
      <trkpt lat="44.73209" lon="5.47997">
        <ele>1887</ele>
        <time>2020-03-29T13:11:24Z</time>
      </trkpt>
      <trkpt lat="44.73317" lon="5.48003">
        <ele>1895</ele>
        <time>2020-03-29T13:12:00Z</time>
      </trkpt>
      <trkpt lat="44.73357" lon="5.48003">
        <ele>1897</ele>
        <time>2020-03-29T13:12:13Z</time>
      </trkpt>
      <trkpt lat="44.7345" lon="5.47982">
        <ele>1905</ele>
        <time>2020-03-29T13:12:44Z</time>
      </trkpt>
      <trkpt lat="44.73454" lon="5.4793">
        <ele>1915</ele>
        <time>2020-03-29T13:12:57Z</time>
      </trkpt>
      <trkpt lat="44.73418" lon="5.4783">
        <ele>1930</ele>
        <time>2020-03-29T13:13:23Z</time>
      </trkpt>
      <trkpt lat="44.734" lon="5.47731">
        <ele>1933</ele>
        <time>2020-03-29T13:13:48Z</time>
      </trkpt>
      <trkpt lat="44.73353" lon="5.47585">
        <ele>1929</ele>
        <time>2020-03-29T13:14:26Z</time>
      </trkpt>
      <trkpt lat="44.73346" lon="5.47491">
        <ele>1940</ele>
        <time>2020-03-29T13:14:48Z</time>
      </trkpt>
      <trkpt lat="44.73328" lon="5.47408">
        <ele>1953</ele>
        <time>2020-03-29T13:15:09Z</time>
      </trkpt>
      <trkpt lat="44.73367" lon="5.47381">
        <ele>1955</ele>
        <time>2020-03-29T13:15:23Z</time>
      </trkpt>
      <trkpt lat="44.73421" lon="5.47402">
        <ele>1951</ele>
        <time>2020-03-29T13:15:42Z</time>
      </trkpt>
      <trkpt lat="44.73504" lon="5.47329">
        <ele>1975</ele>
        <time>2020-03-29T13:16:14Z</time>
      </trkpt>
      <trkpt lat="44.73522" lon="5.47277">
        <ele>1985</ele>
        <time>2020-03-29T13:16:28Z</time>
      </trkpt>
      <trkpt lat="44.73493" lon="5.47209">
        <ele>1990</ele>
        <time>2020-03-29T13:16:47Z</time>
      </trkpt>
      <trkpt lat="44.73482" lon="5.47131">
        <ele>1998</ele>
        <time>2020-03-29T13:17:06Z</time>
      </trkpt>
      <trkpt lat="44.73493" lon="5.47063">
        <ele>2006</ele>
        <time>2020-03-29T13:17:22Z</time>
      </trkpt>
      <trkpt lat="44.73572" lon="5.47042">
        <ele>2018</ele>
        <time>2020-03-29T13:17:49Z</time>
      </trkpt>
      <trkpt lat="44.73637" lon="5.47037">
        <ele>2026</ele>
        <time>2020-03-29T13:18:11Z</time>
      </trkpt>
      <trkpt lat="44.73694" lon="5.47037">
        <ele>2030</ele>
        <time>2020-03-29T13:18:30Z</time>
      </trkpt>
      <trkpt lat="44.73727" lon="5.47026">
        <ele>2031</ele>
        <time>2020-03-29T13:18:41Z</time>
      </trkpt>
      <trkpt lat="44.73752" lon="5.46995">
        <ele>2031</ele>
        <time>2020-03-29T13:18:52Z</time>
      </trkpt>
      <trkpt lat="44.73791" lon="5.46948">
        <ele>2020</ele>
        <time>2020-03-29T13:19:09Z</time>
      </trkpt>
      <trkpt lat="44.73802" lon="5.4688">
        <ele>2010</ele>
        <time>2020-03-29T13:19:26Z</time>
      </trkpt>
      <trkpt lat="44.73838" lon="5.46823">
        <ele>1997</ele>
        <time>2020-03-29T13:19:44Z</time>
      </trkpt>
      <trkpt lat="44.73899" lon="5.46823">
        <ele>1991</ele>
        <time>2020-03-29T13:20:04Z</time>
      </trkpt>
      <trkpt lat="44.73946" lon="5.46839">
        <ele>1988</ele>
        <time>2020-03-29T13:20:20Z</time>
      </trkpt>
      <trkpt lat="44.74007" lon="5.46875">
        <ele>1981</ele>
        <time>2020-03-29T13:20:42Z</time>
      </trkpt>
      <trkpt lat="44.74025" lon="5.46932">
        <ele>1980</ele>
        <time>2020-03-29T13:20:57Z</time>
      </trkpt>
      <trkpt lat="44.74025" lon="5.46974">
        <ele>1976</ele>
        <time>2020-03-29T13:21:07Z</time>
      </trkpt>
      <trkpt lat="44.74047" lon="5.47063">
        <ele>1960</ele>
        <time>2020-03-29T13:21:30Z</time>
      </trkpt>
      <trkpt lat="44.74057" lon="5.47126">
        <ele>1945</ele>
        <time>2020-03-29T13:21:45Z</time>
      </trkpt>
      <trkpt lat="44.74115" lon="5.47126">
        <ele>1940</ele>
        <time>2020-03-29T13:22:04Z</time>
      </trkpt>
      <trkpt lat="44.7419" lon="5.47115">
        <ele>1939</ele>
        <time>2020-03-29T13:22:29Z</time>
      </trkpt>
      <trkpt lat="44.74226" lon="5.47063">
        <ele>1939</ele>
        <time>2020-03-29T13:22:47Z</time>
      </trkpt>
      <trkpt lat="44.74266" lon="5.46959">
        <ele>1932</ele>
        <time>2020-03-29T13:23:15Z</time>
      </trkpt>
      <trkpt lat="44.7428" lon="5.46875">
        <ele>1931</ele>
        <time>2020-03-29T13:23:35Z</time>
      </trkpt>
      <trkpt lat="44.74305" lon="5.46797">
        <ele>1929</ele>
        <time>2020-03-29T13:23:55Z</time>
      </trkpt>
      <trkpt lat="44.74366" lon="5.46771">
        <ele>1935</ele>
        <time>2020-03-29T13:24:17Z</time>
      </trkpt>
      <trkpt lat="44.74453" lon="5.46703">
        <ele>1955</ele>
        <time>2020-03-29T13:24:50Z</time>
      </trkpt>
      <trkpt lat="44.74532" lon="5.46687">
        <ele>1971</ele>
        <time>2020-03-29T13:25:16Z</time>
      </trkpt>
      <trkpt lat="44.7455" lon="5.46593">
        <ele>1978</ele>
        <time>2020-03-29T13:25:39Z</time>
      </trkpt>
      <trkpt lat="44.74593" lon="5.46468">
        <ele>1968</ele>
        <time>2020-03-29T13:26:12Z</time>
      </trkpt>
      <trkpt lat="44.74639" lon="5.464">
        <ele>1960</ele>
        <time>2020-03-29T13:26:35Z</time>
      </trkpt>
      <trkpt lat="44.74708" lon="5.464">
        <ele>1962</ele>
        <time>2020-03-29T13:26:58Z</time>
      </trkpt>
      <trkpt lat="44.74808" lon="5.464">
        <ele>1958</ele>
        <time>2020-03-29T13:27:31Z</time>
      </trkpt>
      <trkpt lat="44.74895" lon="5.4639">
        <ele>1948</ele>
        <time>2020-03-29T13:28:00Z</time>
      </trkpt>
      <trkpt lat="44.74931" lon="5.46484">
        <ele>1949</ele>
        <time>2020-03-29T13:28:25Z</time>
      </trkpt>
      <trkpt lat="44.75006" lon="5.46531">
        <ele>1934</ele>
        <time>2020-03-29T13:28:53Z</time>
      </trkpt>
      <trkpt lat="44.75049" lon="5.46635">
        <ele>1937</ele>
        <time>2020-03-29T13:29:21Z</time>
      </trkpt>
      <trkpt lat="44.75121" lon="5.46598">
        <ele>1937</ele>
        <time>2020-03-29T13:29:47Z</time>
      </trkpt>
      <trkpt lat="44.75182" lon="5.46562">
        <ele>1942</ele>
        <time>2020-03-29T13:30:09Z</time>
      </trkpt>
      <trkpt lat="44.75211" lon="5.46515">
        <ele>1946</ele>
        <time>2020-03-29T13:30:24Z</time>
      </trkpt>
      <trkpt lat="44.7524" lon="5.46379">
        <ele>1942</ele>
        <time>2020-03-29T13:30:57Z</time>
      </trkpt>
      <trkpt lat="44.75304" lon="5.46437">
        <ele>1948</ele>
        <time>2020-03-29T13:31:23Z</time>
      </trkpt>
      <trkpt lat="44.75333" lon="5.46457">
        <ele>1946</ele>
        <time>2020-03-29T13:31:34Z</time>
      </trkpt>
      <trkpt lat="44.75459" lon="5.464">
        <ele>1937</ele>
        <time>2020-03-29T13:32:18Z</time>
      </trkpt>
      <trkpt lat="44.75549" lon="5.46379">
        <ele>1927</ele>
        <time>2020-03-29T13:32:48Z</time>
      </trkpt>
      <trkpt lat="44.75599" lon="5.46452">
        <ele>1934</ele>
        <time>2020-03-29T13:33:12Z</time>
      </trkpt>
      <trkpt lat="44.75646" lon="5.4641">
        <ele>1935</ele>
        <time>2020-03-29T13:33:31Z</time>
      </trkpt>
      <trkpt lat="44.75649" lon="5.46322">
        <ele>1931</ele>
        <time>2020-03-29T13:33:52Z</time>
      </trkpt>
      <trkpt lat="44.75703" lon="5.46243">
        <ele>1927</ele>
        <time>2020-03-29T13:34:18Z</time>
      </trkpt>
      <trkpt lat="44.75793" lon="5.4617">
        <ele>1913</ele>
        <time>2020-03-29T13:34:52Z</time>
      </trkpt>
      <trkpt lat="44.7589" lon="5.46102">
        <ele>1914</ele>
        <time>2020-03-29T13:35:28Z</time>
      </trkpt>
      <trkpt lat="44.75965" lon="5.46076">
        <ele>1918</ele>
        <time>2020-03-29T13:35:54Z</time>
      </trkpt>
      <trkpt lat="44.76023" lon="5.46003">
        <ele>1901</ele>
        <time>2020-03-29T13:36:20Z</time>
      </trkpt>
      <trkpt lat="44.76131" lon="5.46066">
        <ele>1918</ele>
        <time>2020-03-29T13:36:59Z</time>
      </trkpt>
      <trkpt lat="44.76188" lon="5.45941">
        <ele>1894</ele>
        <time>2020-03-29T13:37:34Z</time>
      </trkpt>
      <trkpt lat="44.76303" lon="5.46014">
        <ele>1899</ele>
        <time>2020-03-29T13:38:16Z</time>
      </trkpt>
      <trkpt lat="44.76389" lon="5.46061">
        <ele>1899</ele>
        <time>2020-03-29T13:38:47Z</time>
      </trkpt>
      <trkpt lat="44.76465" lon="5.4605">
        <ele>1904</ele>
        <time>2020-03-29T13:39:13Z</time>
      </trkpt>
      <trkpt lat="44.76508" lon="5.45988">
        <ele>1902</ele>
        <time>2020-03-29T13:39:33Z</time>
      </trkpt>
      <trkpt lat="44.76562" lon="5.45956">
        <ele>1910</ele>
        <time>2020-03-29T13:39:53Z</time>
      </trkpt>
      <trkpt lat="44.76594" lon="5.46029">
        <ele>1913</ele>
        <time>2020-03-29T13:40:13Z</time>
      </trkpt>
      <trkpt lat="44.76677" lon="5.46029">
        <ele>1914</ele>
        <time>2020-03-29T13:40:41Z</time>
      </trkpt>
      <trkpt lat="44.76724" lon="5.46024">
        <ele>1916</ele>
        <time>2020-03-29T13:40:56Z</time>
      </trkpt>
      <trkpt lat="44.76752" lon="5.46092">
        <ele>1907</ele>
        <time>2020-03-29T13:41:15Z</time>
      </trkpt>
      <trkpt lat="44.76849" lon="5.46087">
        <ele>1912</ele>
        <time>2020-03-29T13:41:47Z</time>
      </trkpt>
      <trkpt lat="44.76939" lon="5.46087">
        <ele>1908</ele>
        <time>2020-03-29T13:42:17Z</time>
      </trkpt>
      <trkpt lat="44.7709" lon="5.46092">
        <ele>1901</ele>
        <time>2020-03-29T13:43:08Z</time>
      </trkpt>
      <trkpt lat="44.77072" lon="5.46155">
        <ele>1886</ele>
        <time>2020-03-29T13:43:24Z</time>
      </trkpt>
      <trkpt lat="44.7709" lon="5.46238">
        <ele>1881</ele>
        <time>2020-03-29T13:43:44Z</time>
      </trkpt>
      <trkpt lat="44.77108" lon="5.46358">
        <ele>1876</ele>
        <time>2020-03-29T13:44:14Z</time>
      </trkpt>
      <trkpt lat="44.77148" lon="5.46457">
        <ele>1877</ele>
        <time>2020-03-29T13:44:41Z</time>
      </trkpt>
      <trkpt lat="44.77252" lon="5.46557">
        <ele>1884</ele>
        <time>2020-03-29T13:45:23Z</time>
      </trkpt>
      <trkpt lat="44.77309" lon="5.46557">
        <ele>1884</ele>
        <time>2020-03-29T13:45:42Z</time>
      </trkpt>
      <trkpt lat="44.77388" lon="5.46531">
        <ele>1882</ele>
        <time>2020-03-29T13:46:09Z</time>
      </trkpt>
      <trkpt lat="44.77457" lon="5.46531">
        <ele>1881</ele>
        <time>2020-03-29T13:46:32Z</time>
      </trkpt>
      <trkpt lat="44.77518" lon="5.46468">
        <ele>1882</ele>
        <time>2020-03-29T13:46:57Z</time>
      </trkpt>
      <trkpt lat="44.77622" lon="5.464">
        <ele>1876</ele>
        <time>2020-03-29T13:47:35Z</time>
      </trkpt>
      <trkpt lat="44.77704" lon="5.46379">
        <ele>1884</ele>
        <time>2020-03-29T13:48:03Z</time>
      </trkpt>
      <trkpt lat="44.77787" lon="5.46374">
        <ele>1894</ele>
        <time>2020-03-29T13:48:31Z</time>
      </trkpt>
      <trkpt lat="44.77834" lon="5.46442">
        <ele>1900</ele>
        <time>2020-03-29T13:48:53Z</time>
      </trkpt>
      <trkpt lat="44.77873" lon="5.46525">
        <ele>1887</ele>
        <time>2020-03-29T13:49:17Z</time>
      </trkpt>
      <trkpt lat="44.77945" lon="5.46604">
        <ele>1872</ele>
        <time>2020-03-29T13:49:47Z</time>
      </trkpt>
      <trkpt lat="44.78046" lon="5.46687">
        <ele>1845</ele>
        <time>2020-03-29T13:50:26Z</time>
      </trkpt>
      <trkpt lat="44.78129" lon="5.46818">
        <ele>1798</ele>
        <time>2020-03-29T13:51:08Z</time>
      </trkpt>
      <trkpt lat="44.78164" lon="5.46922">
        <ele>1774</ele>
        <time>2020-03-29T13:51:35Z</time>
      </trkpt>
      <trkpt lat="44.78269" lon="5.47068">
        <ele>1714</ele>
        <time>2020-03-29T13:52:24Z</time>
      </trkpt>
      <trkpt lat="44.7842" lon="5.471">
        <ele>1666</ele>
        <time>2020-03-29T13:53:15Z</time>
      </trkpt>
      <trkpt lat="44.78463" lon="5.47016">
        <ele>1653</ele>
        <time>2020-03-29T13:53:40Z</time>
      </trkpt>
      <trkpt lat="44.7857" lon="5.46964">
        <ele>1621</ele>
        <time>2020-03-29T13:54:17Z</time>
      </trkpt>
      <trkpt lat="44.7865" lon="5.47032">
        <ele>1608</ele>
        <time>2020-03-29T13:54:49Z</time>
      </trkpt>
      <trkpt lat="44.78678" lon="5.47131">
        <ele>1600</ele>
        <time>2020-03-29T13:55:14Z</time>
      </trkpt>
      <trkpt lat="44.78754" lon="5.47105">
        <ele>1597</ele>
        <time>2020-03-29T13:55:40Z</time>
      </trkpt>
      <trkpt lat="44.78815" lon="5.47225">
        <ele>1588</ele>
        <time>2020-03-29T13:56:15Z</time>
      </trkpt>
      <trkpt lat="44.78779" lon="5.47392">
        <ele>1597</ele>
        <time>2020-03-29T13:56:56Z</time>
      </trkpt>
      <trkpt lat="44.78844" lon="5.47345">
        <ele>1588</ele>
        <time>2020-03-29T13:57:21Z</time>
      </trkpt>
      <trkpt lat="44.78872" lon="5.47481">
        <ele>1588</ele>
        <time>2020-03-29T13:57:54Z</time>
      </trkpt>
      <trkpt lat="44.7884" lon="5.47481">
        <ele>1588</ele>
        <time>2020-03-29T13:58:05Z</time>
      </trkpt>
      <trkpt lat="44.78879" lon="5.47669">
        <ele>1585</ele>
        <time>2020-03-29T13:58:51Z</time>
      </trkpt>
      <trkpt lat="44.78804" lon="5.47627">
        <ele>1588</ele>
        <time>2020-03-29T13:59:18Z</time>
      </trkpt>
      <trkpt lat="44.78736" lon="5.47569">
        <ele>1602</ele>
        <time>2020-03-29T13:59:45Z</time>
      </trkpt>
      <trkpt lat="44.78718" lon="5.47507">
        <ele>1607</ele>
        <time>2020-03-29T14:00:00Z</time>
      </trkpt>
      <trkpt lat="44.78624" lon="5.47528">
        <ele>1615</ele>
        <time>2020-03-29T14:00:32Z</time>
      </trkpt>
      <trkpt lat="44.7857" lon="5.47428">
        <ele>1623</ele>
        <time>2020-03-29T14:01:02Z</time>
      </trkpt>
      <trkpt lat="44.78499" lon="5.47522">
        <ele>1617</ele>
        <time>2020-03-29T14:01:34Z</time>
      </trkpt>
      <trkpt lat="44.78455" lon="5.47559">
        <ele>1617</ele>
        <time>2020-03-29T14:01:52Z</time>
      </trkpt>
      <trkpt lat="44.78402" lon="5.47606">
        <ele>1618</ele>
        <time>2020-03-29T14:02:12Z</time>
      </trkpt>
      <trkpt lat="44.78344" lon="5.47627">
        <ele>1620</ele>
        <time>2020-03-29T14:02:32Z</time>
      </trkpt>
      <trkpt lat="44.78301" lon="5.47669">
        <ele>1619</ele>
        <time>2020-03-29T14:02:50Z</time>
      </trkpt>
      <trkpt lat="44.7824" lon="5.47616">
        <ele>1620</ele>
        <time>2020-03-29T14:03:14Z</time>
      </trkpt>
      <trkpt lat="44.78129" lon="5.47538">
        <ele>1625</ele>
        <time>2020-03-29T14:03:55Z</time>
      </trkpt>
      <trkpt lat="44.78057" lon="5.47528">
        <ele>1628</ele>
        <time>2020-03-29T14:04:19Z</time>
      </trkpt>
      <trkpt lat="44.77999" lon="5.47517">
        <ele>1627</ele>
        <time>2020-03-29T14:04:39Z</time>
      </trkpt>
      <trkpt lat="44.7797" lon="5.47486">
        <ele>1630</ele>
        <time>2020-03-29T14:04:51Z</time>
      </trkpt>
      <trkpt lat="44.77938" lon="5.47507">
        <ele>1626</ele>
        <time>2020-03-29T14:05:03Z</time>
      </trkpt>
      <trkpt lat="44.77888" lon="5.47517">
        <ele>1626</ele>
        <time>2020-03-29T14:05:20Z</time>
      </trkpt>
      <trkpt lat="44.77841" lon="5.47496">
        <ele>1627</ele>
        <time>2020-03-29T14:05:36Z</time>
      </trkpt>
      <trkpt lat="44.77784" lon="5.47512">
        <ele>1626</ele>
        <time>2020-03-29T14:05:55Z</time>
      </trkpt>
      <trkpt lat="44.77722" lon="5.47543">
        <ele>1625</ele>
        <time>2020-03-29T14:06:17Z</time>
      </trkpt>
      <trkpt lat="44.77658" lon="5.47611">
        <ele>1622</ele>
        <time>2020-03-29T14:06:44Z</time>
      </trkpt>
      <trkpt lat="44.77618" lon="5.477">
        <ele>1619</ele>
        <time>2020-03-29T14:07:09Z</time>
      </trkpt>
      <trkpt lat="44.77546" lon="5.47778">
        <ele>1614</ele>
        <time>2020-03-29T14:07:39Z</time>
      </trkpt>
      <trkpt lat="44.77442" lon="5.47773">
        <ele>1614</ele>
        <time>2020-03-29T14:08:14Z</time>
      </trkpt>
      <trkpt lat="44.7736" lon="5.47757">
        <ele>1620</ele>
        <time>2020-03-29T14:08:42Z</time>
      </trkpt>
      <trkpt lat="44.77334" lon="5.47789">
        <ele>1616</ele>
        <time>2020-03-29T14:08:53Z</time>
      </trkpt>
      <trkpt lat="44.77302" lon="5.47804">
        <ele>1618</ele>
        <time>2020-03-29T14:09:04Z</time>
      </trkpt>
      <trkpt lat="44.77284" lon="5.47872">
        <ele>1608</ele>
        <time>2020-03-29T14:09:22Z</time>
      </trkpt>
      <trkpt lat="44.77245" lon="5.47898">
        <ele>1600</ele>
        <time>2020-03-29T14:09:36Z</time>
      </trkpt>
      <trkpt lat="44.77194" lon="5.47909">
        <ele>1580</ele>
        <time>2020-03-29T14:09:53Z</time>
      </trkpt>
      <trkpt lat="44.77151" lon="5.47883">
        <ele>1578</ele>
        <time>2020-03-29T14:10:09Z</time>
      </trkpt>
      <trkpt lat="44.77094" lon="5.47903">
        <ele>1552</ele>
        <time>2020-03-29T14:10:28Z</time>
      </trkpt>
      <trkpt lat="44.77158" lon="5.47982">
        <ele>1538</ele>
        <time>2020-03-29T14:10:57Z</time>
      </trkpt>
      <trkpt lat="44.77058" lon="5.47982">
        <ele>1503</ele>
        <time>2020-03-29T14:11:30Z</time>
      </trkpt>
      <trkpt lat="44.77104" lon="5.48008">
        <ele>1503</ele>
        <time>2020-03-29T14:11:47Z</time>
      </trkpt>
      <trkpt lat="44.77061" lon="5.48023">
        <ele>1483</ele>
        <time>2020-03-29T14:12:02Z</time>
      </trkpt>
      <trkpt lat="44.77097" lon="5.48044">
        <ele>1482</ele>
        <time>2020-03-29T14:12:15Z</time>
      </trkpt>
      <trkpt lat="44.77054" lon="5.4807">
        <ele>1460</ele>
        <time>2020-03-29T14:12:30Z</time>
      </trkpt>
      <trkpt lat="44.77155" lon="5.4817">
        <ele>1447</ele>
        <time>2020-03-29T14:13:11Z</time>
      </trkpt>
      <trkpt lat="44.77115" lon="5.48149">
        <ele>1443</ele>
        <time>2020-03-29T14:13:26Z</time>
      </trkpt>
      <trkpt lat="44.77061" lon="5.48154">
        <ele>1429</ele>
        <time>2020-03-29T14:13:44Z</time>
      </trkpt>
      <trkpt lat="44.76979" lon="5.48144">
        <ele>1423</ele>
        <time>2020-03-29T14:14:11Z</time>
      </trkpt>
      <trkpt lat="44.76885" lon="5.48128">
        <ele>1419</ele>
        <time>2020-03-29T14:14:43Z</time>
      </trkpt>
      <trkpt lat="44.76817" lon="5.48128">
        <ele>1411</ele>
        <time>2020-03-29T14:15:05Z</time>
      </trkpt>
      <trkpt lat="44.76731" lon="5.48117">
        <ele>1401</ele>
        <time>2020-03-29T14:15:34Z</time>
      </trkpt>
      <trkpt lat="44.76623" lon="5.48086">
        <ele>1383</ele>
        <time>2020-03-29T14:16:11Z</time>
      </trkpt>
      <trkpt lat="44.76537" lon="5.48065">
        <ele>1378</ele>
        <time>2020-03-29T14:16:40Z</time>
      </trkpt>
      <trkpt lat="44.76461" lon="5.48055">
        <ele>1378</ele>
        <time>2020-03-29T14:17:06Z</time>
      </trkpt>
      <trkpt lat="44.76411" lon="5.48091">
        <ele>1369</ele>
        <time>2020-03-29T14:17:24Z</time>
      </trkpt>
      <trkpt lat="44.76343" lon="5.48128">
        <ele>1375</ele>
        <time>2020-03-29T14:17:49Z</time>
      </trkpt>
      <trkpt lat="44.76303" lon="5.4817">
        <ele>1378</ele>
        <time>2020-03-29T14:18:05Z</time>
      </trkpt>
      <trkpt lat="44.76292" lon="5.48238">
        <ele>1378</ele>
        <time>2020-03-29T14:18:22Z</time>
      </trkpt>
      <trkpt lat="44.76292" lon="5.48311">
        <ele>1395</ele>
        <time>2020-03-29T14:18:39Z</time>
      </trkpt>
      <trkpt lat="44.7621" lon="5.48384">
        <ele>1361</ele>
        <time>2020-03-29T14:19:11Z</time>
      </trkpt>
      <trkpt lat="44.76131" lon="5.48462">
        <ele>1374</ele>
        <time>2020-03-29T14:19:44Z</time>
      </trkpt>
      <trkpt lat="44.7603" lon="5.48519">
        <ele>1389</ele>
        <time>2020-03-29T14:20:20Z</time>
      </trkpt>
      <trkpt lat="44.75973" lon="5.48525">
        <ele>1350</ele>
        <time>2020-03-29T14:20:39Z</time>
      </trkpt>
      <trkpt lat="44.75876" lon="5.48572">
        <ele>1297</ele>
        <time>2020-03-29T14:21:13Z</time>
      </trkpt>
      <trkpt lat="44.75836" lon="5.48582">
        <ele>1275</ele>
        <time>2020-03-29T14:21:27Z</time>
      </trkpt>
      <trkpt lat="44.75768" lon="5.48603">
        <ele>1242</ele>
        <time>2020-03-29T14:21:50Z</time>
      </trkpt>
      <trkpt lat="44.75725" lon="5.48639">
        <ele>1222</ele>
        <time>2020-03-29T14:22:07Z</time>
      </trkpt>
      <trkpt lat="44.75692" lon="5.48707">
        <ele>1211</ele>
        <time>2020-03-29T14:22:26Z</time>
      </trkpt>
      <trkpt lat="44.75628" lon="5.48791">
        <ele>1185</ele>
        <time>2020-03-29T14:22:55Z</time>
      </trkpt>
      <trkpt lat="44.75552" lon="5.48848">
        <ele>1143</ele>
        <time>2020-03-29T14:23:24Z</time>
      </trkpt>
      <trkpt lat="44.75477" lon="5.48989">
        <ele>1102</ele>
        <time>2020-03-29T14:24:06Z</time>
      </trkpt>
      <trkpt lat="44.75455" lon="5.49088">
        <ele>1092</ele>
        <time>2020-03-29T14:24:30Z</time>
      </trkpt>
      <trkpt lat="44.75376" lon="5.49208">
        <ele>1046</ele>
        <time>2020-03-29T14:25:09Z</time>
      </trkpt>
      <trkpt lat="44.75383" lon="5.49141">
        <ele>1046</ele>
        <time>2020-03-29T14:25:25Z</time>
      </trkpt>
      <trkpt lat="44.75329" lon="5.49214">
        <ele>1016</ele>
        <time>2020-03-29T14:25:50Z</time>
      </trkpt>
      <trkpt lat="44.75257" lon="5.49266">
        <ele>979</ele>
        <time>2020-03-29T14:26:17Z</time>
      </trkpt>
      <trkpt lat="44.75222" lon="5.49292">
        <ele>962</ele>
        <time>2020-03-29T14:26:30Z</time>
      </trkpt>
      <trkpt lat="44.7524" lon="5.4936">
        <ele>983</ele>
        <time>2020-03-29T14:26:48Z</time>
      </trkpt>
      <trkpt lat="44.75189" lon="5.4936">
        <ele>953</ele>
        <time>2020-03-29T14:27:05Z</time>
      </trkpt>
      <trkpt lat="44.75117" lon="5.49386">
        <ele>923</ele>
        <time>2020-03-29T14:27:29Z</time>
      </trkpt>
      <trkpt lat="44.74999" lon="5.49475">
        <ele>882</ele>
        <time>2020-03-29T14:28:14Z</time>
      </trkpt>
      <trkpt lat="44.74956" lon="5.49537">
        <ele>871</ele>
        <time>2020-03-29T14:28:35Z</time>
      </trkpt>
      <trkpt lat="44.74927" lon="5.49553">
        <ele>861</ele>
        <time>2020-03-29T14:28:45Z</time>
      </trkpt>
      <trkpt lat="44.74913" lon="5.4961">
        <ele>853</ele>
        <time>2020-03-29T14:28:59Z</time>
      </trkpt>
      <trkpt lat="44.74884" lon="5.49668">
        <ele>846</ele>
        <time>2020-03-29T14:29:16Z</time>
      </trkpt>
      <trkpt lat="44.74833" lon="5.49725">
        <ele>833</ele>
        <time>2020-03-29T14:29:38Z</time>
      </trkpt>
      <trkpt lat="44.74805" lon="5.49804">
        <ele>828</ele>
        <time>2020-03-29T14:29:59Z</time>
      </trkpt>
      <trkpt lat="44.7478" lon="5.49856">
        <ele>817</ele>
        <time>2020-03-29T14:30:14Z</time>
      </trkpt>
      <trkpt lat="44.74747" lon="5.49929">
        <ele>798</ele>
        <time>2020-03-29T14:30:34Z</time>
      </trkpt>
      <trkpt lat="44.7474" lon="5.50101">
        <ele>793</ele>
        <time>2020-03-29T14:31:15Z</time>
      </trkpt>
      <trkpt lat="44.74718" lon="5.502">
        <ele>786</ele>
        <time>2020-03-29T14:31:39Z</time>
      </trkpt>
      <trkpt lat="44.74643" lon="5.50446">
        <ele>773</ele>
        <time>2020-03-29T14:32:43Z</time>
      </trkpt>
      <trkpt lat="44.746" lon="5.50482">
        <ele>765</ele>
        <time>2020-03-29T14:33:00Z</time>
      </trkpt>
      <trkpt lat="44.74564" lon="5.50472">
        <ele>761</ele>
        <time>2020-03-29T14:33:12Z</time>
      </trkpt>
      <trkpt lat="44.74586" lon="5.50393">
        <ele>764</ele>
        <time>2020-03-29T14:33:32Z</time>
      </trkpt>
      <trkpt lat="44.74611" lon="5.50336">
        <ele>768</ele>
        <time>2020-03-29T14:33:48Z</time>
      </trkpt>
      <trkpt lat="44.74564" lon="5.50299">
        <ele>777</ele>
        <time>2020-03-29T14:34:06Z</time>
      </trkpt>
      <trkpt lat="44.74564" lon="5.50216">
        <ele>793</ele>
        <time>2020-03-29T14:34:25Z</time>
      </trkpt>
      <trkpt lat="44.7456" lon="5.50117">
        <ele>815</ele>
        <time>2020-03-29T14:34:49Z</time>
      </trkpt>
      <trkpt lat="44.74571" lon="5.50054">
        <ele>824</ele>
        <time>2020-03-29T14:35:04Z</time>
      </trkpt>
      <trkpt lat="44.746" lon="5.49976">
        <ele>827</ele>
        <time>2020-03-29T14:35:25Z</time>
      </trkpt>
      <trkpt lat="44.74611" lon="5.49924">
        <ele>832</ele>
        <time>2020-03-29T14:35:38Z</time>
      </trkpt>
      <trkpt lat="44.74589" lon="5.49861">
        <ele>859</ele>
        <time>2020-03-29T14:35:55Z</time>
      </trkpt>
      <trkpt lat="44.74621" lon="5.49819">
        <ele>855</ele>
        <time>2020-03-29T14:36:09Z</time>
      </trkpt>
      <trkpt lat="44.74657" lon="5.49751">
        <ele>858</ele>
        <time>2020-03-29T14:36:29Z</time>
      </trkpt>
      <trkpt lat="44.74657" lon="5.49689">
        <ele>875</ele>
        <time>2020-03-29T14:36:44Z</time>
      </trkpt>
      <trkpt lat="44.74665" lon="5.49584">
        <ele>899</ele>
        <time>2020-03-29T14:37:09Z</time>
      </trkpt>
      <trkpt lat="44.74715" lon="5.49548">
        <ele>894</ele>
        <time>2020-03-29T14:37:28Z</time>
      </trkpt>
      <trkpt lat="44.74686" lon="5.49485">
        <ele>924</ele>
        <time>2020-03-29T14:37:46Z</time>
      </trkpt>
      <trkpt lat="44.74654" lon="5.49543">
        <ele>918</ele>
        <time>2020-03-29T14:38:03Z</time>
      </trkpt>
      <trkpt lat="44.74596" lon="5.49579">
        <ele>943</ele>
        <time>2020-03-29T14:38:24Z</time>
      </trkpt>
      <trkpt lat="44.74575" lon="5.49668">
        <ele>925</ele>
        <time>2020-03-29T14:38:46Z</time>
      </trkpt>
      <trkpt lat="44.74571" lon="5.49626">
        <ele>942</ele>
        <time>2020-03-29T14:38:56Z</time>
      </trkpt>
      <trkpt lat="44.74542" lon="5.49657">
        <ele>945</ele>
        <time>2020-03-29T14:39:09Z</time>
      </trkpt>
      <trkpt lat="44.74521" lon="5.4972">
        <ele>935</ele>
        <time>2020-03-29T14:39:25Z</time>
      </trkpt>
      <trkpt lat="44.74492" lon="5.49725">
        <ele>949</ele>
        <time>2020-03-29T14:39:35Z</time>
      </trkpt>
      <trkpt lat="44.74463" lon="5.49772">
        <ele>950</ele>
        <time>2020-03-29T14:39:50Z</time>
      </trkpt>
      <trkpt lat="44.74392" lon="5.49835">
        <ele>965</ele>
        <time>2020-03-29T14:40:18Z</time>
      </trkpt>
      <trkpt lat="44.74366" lon="5.49819">
        <ele>982</ele>
        <time>2020-03-29T14:40:27Z</time>
      </trkpt>
      <trkpt lat="44.74327" lon="5.49793">
        <ele>1006</ele>
        <time>2020-03-29T14:40:41Z</time>
      </trkpt>
      <trkpt lat="44.74309" lon="5.49856">
        <ele>1001</ele>
        <time>2020-03-29T14:40:57Z</time>
      </trkpt>
      <trkpt lat="44.74291" lon="5.49913">
        <ele>997</ele>
        <time>2020-03-29T14:41:12Z</time>
      </trkpt>
      <trkpt lat="44.74248" lon="5.49955">
        <ele>1006</ele>
        <time>2020-03-29T14:41:30Z</time>
      </trkpt>
      <trkpt lat="44.74212" lon="5.49955">
        <ele>1014</ele>
        <time>2020-03-29T14:41:42Z</time>
      </trkpt>
      <trkpt lat="44.74176" lon="5.49997">
        <ele>1008</ele>
        <time>2020-03-29T14:41:57Z</time>
      </trkpt>
      <trkpt lat="44.74097" lon="5.49997">
        <ele>1002</ele>
        <time>2020-03-29T14:42:24Z</time>
      </trkpt>
      <trkpt lat="44.74068" lon="5.49955">
        <ele>1014</ele>
        <time>2020-03-29T14:42:38Z</time>
      </trkpt>
      <trkpt lat="44.74025" lon="5.49918">
        <ele>1020</ele>
        <time>2020-03-29T14:42:54Z</time>
      </trkpt>
      <trkpt lat="44.73996" lon="5.49918">
        <ele>1013</ele>
        <time>2020-03-29T14:43:04Z</time>
      </trkpt>
      <trkpt lat="44.73942" lon="5.49887">
        <ele>1011</ele>
        <time>2020-03-29T14:43:24Z</time>
      </trkpt>
      <trkpt lat="44.73831" lon="5.49783">
        <ele>1030</ele>
        <time>2020-03-29T14:44:08Z</time>
      </trkpt>
      <trkpt lat="44.73788" lon="5.49788">
        <ele>1033</ele>
        <time>2020-03-29T14:44:22Z</time>
      </trkpt>
      <trkpt lat="44.73748" lon="5.49809">
        <ele>1030</ele>
        <time>2020-03-29T14:44:37Z</time>
      </trkpt>
      <trkpt lat="44.73694" lon="5.49772">
        <ele>1055</ele>
        <time>2020-03-29T14:44:57Z</time>
      </trkpt>
      <trkpt lat="44.73658" lon="5.49762">
        <ele>1068</ele>
        <time>2020-03-29T14:45:09Z</time>
      </trkpt>
      <trkpt lat="44.7363" lon="5.49798">
        <ele>1076</ele>
        <time>2020-03-29T14:45:22Z</time>
      </trkpt>
      <trkpt lat="44.73612" lon="5.49856">
        <ele>1076</ele>
        <time>2020-03-29T14:45:37Z</time>
      </trkpt>
      <trkpt lat="44.73601" lon="5.4995">
        <ele>1068</ele>
        <time>2020-03-29T14:45:59Z</time>
      </trkpt>
      <trkpt lat="44.73579" lon="5.50038">
        <ele>1072</ele>
        <time>2020-03-29T14:46:21Z</time>
      </trkpt>
      <trkpt lat="44.73536" lon="5.5007">
        <ele>1083</ele>
        <time>2020-03-29T14:46:37Z</time>
      </trkpt>
      <trkpt lat="44.73446" lon="5.50106">
        <ele>1089</ele>
        <time>2020-03-29T14:47:09Z</time>
      </trkpt>
      <trkpt lat="44.73393" lon="5.50138">
        <ele>1085</ele>
        <time>2020-03-29T14:47:28Z</time>
      </trkpt>
      <trkpt lat="44.73353" lon="5.50148">
        <ele>1092</ele>
        <time>2020-03-29T14:47:41Z</time>
      </trkpt>
      <trkpt lat="44.73303" lon="5.50185">
        <ele>1096</ele>
        <time>2020-03-29T14:48:00Z</time>
      </trkpt>
      <trkpt lat="44.7326" lon="5.50226">
        <ele>1099</ele>
        <time>2020-03-29T14:48:18Z</time>
      </trkpt>
      <trkpt lat="44.73202" lon="5.50284">
        <ele>1089</ele>
        <time>2020-03-29T14:48:41Z</time>
      </trkpt>
      <trkpt lat="44.73123" lon="5.50326">
        <ele>1083</ele>
        <time>2020-03-29T14:49:10Z</time>
      </trkpt>
      <trkpt lat="44.73073" lon="5.50336">
        <ele>1084</ele>
        <time>2020-03-29T14:49:26Z</time>
      </trkpt>
      <trkpt lat="44.73022" lon="5.50373">
        <ele>1079</ele>
        <time>2020-03-29T14:49:46Z</time>
      </trkpt>
      <trkpt lat="44.72976" lon="5.50399">
        <ele>1084</ele>
        <time>2020-03-29T14:50:02Z</time>
      </trkpt>
      <trkpt lat="44.72929" lon="5.50456">
        <ele>1079</ele>
        <time>2020-03-29T14:50:23Z</time>
      </trkpt>
      <trkpt lat="44.72857" lon="5.50493">
        <ele>1095</ele>
        <time>2020-03-29T14:50:48Z</time>
      </trkpt>
      <trkpt lat="44.72814" lon="5.50524">
        <ele>1113</ele>
        <time>2020-03-29T14:51:04Z</time>
      </trkpt>
      <trkpt lat="44.72803" lon="5.50618">
        <ele>1104</ele>
        <time>2020-03-29T14:51:27Z</time>
      </trkpt>
      <trkpt lat="44.7281" lon="5.50691">
        <ele>1082</ele>
        <time>2020-03-29T14:51:45Z</time>
      </trkpt>
      <trkpt lat="44.72775" lon="5.50748">
        <ele>1070</ele>
        <time>2020-03-29T14:52:02Z</time>
      </trkpt>
      <trkpt lat="44.72656" lon="5.50764">
        <ele>1097</ele>
        <time>2020-03-29T14:52:42Z</time>
      </trkpt>
      <trkpt lat="44.72634" lon="5.50832">
        <ele>1088</ele>
        <time>2020-03-29T14:53:00Z</time>
      </trkpt>
      <trkpt lat="44.72649" lon="5.50931">
        <ele>1052</ele>
        <time>2020-03-29T14:53:24Z</time>
      </trkpt>
      <trkpt lat="44.72588" lon="5.50962">
        <ele>1053</ele>
        <time>2020-03-29T14:53:46Z</time>
      </trkpt>
      <trkpt lat="44.72545" lon="5.50957">
        <ele>1069</ele>
        <time>2020-03-29T14:54:00Z</time>
      </trkpt>
      <trkpt lat="44.72483" lon="5.50983">
        <ele>1082</ele>
        <time>2020-03-29T14:54:22Z</time>
      </trkpt>
      <trkpt lat="44.72462" lon="5.51067">
        <ele>1065</ele>
        <time>2020-03-29T14:54:43Z</time>
      </trkpt>
      <trkpt lat="44.72444" lon="5.51129">
        <ele>1053</ele>
        <time>2020-03-29T14:54:59Z</time>
      </trkpt>
      <trkpt lat="44.72397" lon="5.51156">
        <ele>1071</ele>
        <time>2020-03-29T14:55:15Z</time>
      </trkpt>
      <trkpt lat="44.72394" lon="5.51281">
        <ele>1035</ele>
        <time>2020-03-29T14:55:45Z</time>
      </trkpt>
      <trkpt lat="44.72333" lon="5.51312">
        <ele>1044</ele>
        <time>2020-03-29T14:56:07Z</time>
      </trkpt>
      <trkpt lat="44.72275" lon="5.51333">
        <ele>1037</ele>
        <time>2020-03-29T14:56:27Z</time>
      </trkpt>
      <trkpt lat="44.72218" lon="5.51338">
        <ele>1039</ele>
        <time>2020-03-29T14:56:46Z</time>
      </trkpt>
      <trkpt lat="44.72182" lon="5.51338">
        <ele>1043</ele>
        <time>2020-03-29T14:56:58Z</time>
      </trkpt>
      <trkpt lat="44.72142" lon="5.51349">
        <ele>1046</ele>
        <time>2020-03-29T14:57:11Z</time>
      </trkpt>
      <trkpt lat="44.72113" lon="5.5139">
        <ele>1041</ele>
        <time>2020-03-29T14:57:25Z</time>
      </trkpt>
      <trkpt lat="44.72117" lon="5.51437">
        <ele>1025</ele>
        <time>2020-03-29T14:57:36Z</time>
      </trkpt>
      <trkpt lat="44.72088" lon="5.51443">
        <ele>1034</ele>
        <time>2020-03-29T14:57:46Z</time>
      </trkpt>
      <trkpt lat="44.72059" lon="5.51526">
        <ele>1021</ele>
        <time>2020-03-29T14:58:08Z</time>
      </trkpt>
      <trkpt lat="44.72027" lon="5.51552">
        <ele>1024</ele>
        <time>2020-03-29T14:58:20Z</time>
      </trkpt>
      <trkpt lat="44.7197" lon="5.51625">
        <ele>1026</ele>
        <time>2020-03-29T14:58:46Z</time>
      </trkpt>
      <trkpt lat="44.71916" lon="5.51693">
        <ele>1027</ele>
        <time>2020-03-29T14:59:10Z</time>
      </trkpt>
      <trkpt lat="44.71819" lon="5.51808">
        <ele>1014</ele>
        <time>2020-03-29T14:59:53Z</time>
      </trkpt>
      <trkpt lat="44.71707" lon="5.51871">
        <ele>1017</ele>
        <time>2020-03-29T15:00:33Z</time>
      </trkpt>
      <trkpt lat="44.71653" lon="5.51902">
        <ele>1018</ele>
        <time>2020-03-29T15:00:52Z</time>
      </trkpt>
      <trkpt lat="44.71596" lon="5.51923">
        <ele>1024</ele>
        <time>2020-03-29T15:01:12Z</time>
      </trkpt>
      <trkpt lat="44.71556" lon="5.52022">
        <ele>1004</ele>
        <time>2020-03-29T15:01:39Z</time>
      </trkpt>
      <trkpt lat="44.71506" lon="5.521">
        <ele>981</ele>
        <time>2020-03-29T15:02:04Z</time>
      </trkpt>
      <trkpt lat="44.71456" lon="5.52132">
        <ele>973</ele>
        <time>2020-03-29T15:02:22Z</time>
      </trkpt>
      <trkpt lat="44.71388" lon="5.52132">
        <ele>991</ele>
        <time>2020-03-29T15:02:45Z</time>
      </trkpt>
      <trkpt lat="44.71298" lon="5.52153">
        <ele>1012</ele>
        <time>2020-03-29T15:03:15Z</time>
      </trkpt>
      <trkpt lat="44.71237" lon="5.52173">
        <ele>1013</ele>
        <time>2020-03-29T15:03:36Z</time>
      </trkpt>
      <trkpt lat="44.71154" lon="5.52111">
        <ele>1022</ele>
        <time>2020-03-29T15:04:08Z</time>
      </trkpt>
      <trkpt lat="44.71114" lon="5.51986">
        <ele>1054</ele>
        <time>2020-03-29T15:04:40Z</time>
      </trkpt>
      <trkpt lat="44.71075" lon="5.51923">
        <ele>1070</ele>
        <time>2020-03-29T15:05:00Z</time>
      </trkpt>
      <trkpt lat="44.70989" lon="5.51808">
        <ele>1125</ele>
        <time>2020-03-29T15:05:39Z</time>
      </trkpt>
      <trkpt lat="44.70895" lon="5.51777">
        <ele>1146</ele>
        <time>2020-03-29T15:06:12Z</time>
      </trkpt>
      <trkpt lat="44.70867" lon="5.51834">
        <ele>1121</ele>
        <time>2020-03-29T15:06:28Z</time>
      </trkpt>
      <trkpt lat="44.70859" lon="5.51907">
        <ele>1081</ele>
        <time>2020-03-29T15:06:46Z</time>
      </trkpt>
      <trkpt lat="44.70766" lon="5.51912">
        <ele>1090</ele>
        <time>2020-03-29T15:07:17Z</time>
      </trkpt>
      <trkpt lat="44.7073" lon="5.51881">
        <ele>1098</ele>
        <time>2020-03-29T15:07:31Z</time>
      </trkpt>
      <trkpt lat="44.70805" lon="5.52001">
        <ele>1049</ele>
        <time>2020-03-29T15:08:09Z</time>
      </trkpt>
      <trkpt lat="44.70752" lon="5.52001">
        <ele>1044</ele>
        <time>2020-03-29T15:08:26Z</time>
      </trkpt>
      <trkpt lat="44.70694" lon="5.51986">
        <ele>1034</ele>
        <time>2020-03-29T15:08:46Z</time>
      </trkpt>
      <trkpt lat="44.70658" lon="5.51954">
        <ele>1039</ele>
        <time>2020-03-29T15:09:00Z</time>
      </trkpt>
      <trkpt lat="44.70568" lon="5.51897">
        <ele>1028</ele>
        <time>2020-03-29T15:09:33Z</time>
      </trkpt>
      <trkpt lat="44.70464" lon="5.51839">
        <ele>997</ele>
        <time>2020-03-29T15:10:10Z</time>
      </trkpt>
      <trkpt lat="44.70407" lon="5.51735">
        <ele>1018</ele>
        <time>2020-03-29T15:10:42Z</time>
      </trkpt>
      <trkpt lat="44.70338" lon="5.51678">
        <ele>1031</ele>
        <time>2020-03-29T15:11:08Z</time>
      </trkpt>
      <trkpt lat="44.70266" lon="5.51667">
        <ele>1007</ele>
        <time>2020-03-29T15:11:32Z</time>
      </trkpt>
      <trkpt lat="44.70263" lon="5.51573">
        <ele>1045</ele>
        <time>2020-03-29T15:11:55Z</time>
      </trkpt>
      <trkpt lat="44.70202" lon="5.51547">
        <ele>1035</ele>
        <time>2020-03-29T15:12:16Z</time>
      </trkpt>
      <trkpt lat="44.70166" lon="5.5149">
        <ele>1045</ele>
        <time>2020-03-29T15:12:34Z</time>
      </trkpt>
      <trkpt lat="44.7013" lon="5.51432">
        <ele>1053</ele>
        <time>2020-03-29T15:12:52Z</time>
      </trkpt>
      <trkpt lat="44.7004" lon="5.51364">
        <ele>1049</ele>
        <time>2020-03-29T15:13:26Z</time>
      </trkpt>
      <trkpt lat="44.69986" lon="5.51302">
        <ele>1064</ele>
        <time>2020-03-29T15:13:50Z</time>
      </trkpt>
      <trkpt lat="44.69925" lon="5.51234">
        <ele>1083</ele>
        <time>2020-03-29T15:14:16Z</time>
      </trkpt>
      <trkpt lat="44.69868" lon="5.51161">
        <ele>1083</ele>
        <time>2020-03-29T15:14:41Z</time>
      </trkpt>
      <trkpt lat="44.69911" lon="5.51109">
        <ele>1073</ele>
        <time>2020-03-29T15:15:00Z</time>
      </trkpt>
      <trkpt lat="44.69968" lon="5.51051">
        <ele>1079</ele>
        <time>2020-03-29T15:15:24Z</time>
      </trkpt>
      <trkpt lat="44.69943" lon="5.51009">
        <ele>1053</ele>
        <time>2020-03-29T15:15:37Z</time>
      </trkpt>
      <trkpt lat="44.6995" lon="5.50952">
        <ele>1038</ele>
        <time>2020-03-29T15:15:50Z</time>
      </trkpt>
      <trkpt lat="44.69911" lon="5.50952">
        <ele>1017</ele>
        <time>2020-03-29T15:16:03Z</time>
      </trkpt>
      <trkpt lat="44.69882" lon="5.50895">
        <ele>985</ele>
        <time>2020-03-29T15:16:20Z</time>
      </trkpt>
      <trkpt lat="44.69842" lon="5.50863">
        <ele>955</ele>
        <time>2020-03-29T15:16:35Z</time>
      </trkpt>
      <trkpt lat="44.69842" lon="5.50795">
        <ele>932</ele>
        <time>2020-03-29T15:16:52Z</time>
      </trkpt>
      <trkpt lat="44.69889" lon="5.50738">
        <ele>944</ele>
        <time>2020-03-29T15:17:12Z</time>
      </trkpt>
      <trkpt lat="44.69835" lon="5.50618">
        <ele>922</ele>
        <time>2020-03-29T15:17:46Z</time>
      </trkpt>
      <trkpt lat="44.69792" lon="5.50524">
        <ele>903</ele>
        <time>2020-03-29T15:18:12Z</time>
      </trkpt>
      <trkpt lat="44.69724" lon="5.50498">
        <ele>870</ele>
        <time>2020-03-29T15:18:36Z</time>
      </trkpt>
      <trkpt lat="44.69778" lon="5.50461">
        <ele>893</ele>
        <time>2020-03-29T15:18:56Z</time>
      </trkpt>
      <trkpt lat="44.69789" lon="5.50393">
        <ele>883</ele>
        <time>2020-03-29T15:19:13Z</time>
      </trkpt>
      <trkpt lat="44.69735" lon="5.50341">
        <ele>861</ele>
        <time>2020-03-29T15:19:34Z</time>
      </trkpt>
      <trkpt lat="44.69681" lon="5.5031">
        <ele>849</ele>
        <time>2020-03-29T15:19:54Z</time>
      </trkpt>
      <trkpt lat="44.69645" lon="5.50263">
        <ele>833</ele>
        <time>2020-03-29T15:20:10Z</time>
      </trkpt>
      <trkpt lat="44.69659" lon="5.50195">
        <ele>816</ele>
        <time>2020-03-29T15:20:27Z</time>
      </trkpt>
      <trkpt lat="44.69713" lon="5.50221">
        <ele>821</ele>
        <time>2020-03-29T15:20:46Z</time>
      </trkpt>
      <trkpt lat="44.69763" lon="5.50237">
        <ele>824</ele>
        <time>2020-03-29T15:21:03Z</time>
      </trkpt>
      <trkpt lat="44.69799" lon="5.50221">
        <ele>828</ele>
        <time>2020-03-29T15:21:16Z</time>
      </trkpt>
      <trkpt lat="44.69785" lon="5.50158">
        <ele>811</ele>
        <time>2020-03-29T15:21:31Z</time>
      </trkpt>
      <trkpt lat="44.69738" lon="5.50096">
        <ele>785</ele>
        <time>2020-03-29T15:21:53Z</time>
      </trkpt>
      <trkpt lat="44.69706" lon="5.49981">
        <ele>764</ele>
        <time>2020-03-29T15:22:22Z</time>
      </trkpt>
      <trkpt lat="44.69652" lon="5.49882">
        <ele>721</ele>
        <time>2020-03-29T15:22:52Z</time>
      </trkpt>
      <trkpt lat="44.69648" lon="5.49767">
        <ele>717</ele>
        <time>2020-03-29T15:23:19Z</time>
      </trkpt>
      <trkpt lat="44.69634" lon="5.49673">
        <ele>707</ele>
        <time>2020-03-29T15:23:42Z</time>
      </trkpt>
      <trkpt lat="44.69612" lon="5.49579">
        <ele>685</ele>
        <time>2020-03-29T15:24:05Z</time>
      </trkpt>
      <trkpt lat="44.69584" lon="5.49506">
        <ele>674</ele>
        <time>2020-03-29T15:24:25Z</time>
      </trkpt>
      <trkpt lat="44.69551" lon="5.49375">
        <ele>629</ele>
        <time>2020-03-29T15:24:58Z</time>
      </trkpt>
      <trkpt lat="44.69587" lon="5.49375">
        <ele>634</ele>
        <time>2020-03-29T15:25:10Z</time>
      </trkpt>
      <trkpt lat="44.69652" lon="5.49396">
        <ele>631</ele>
        <time>2020-03-29T15:25:32Z</time>
      </trkpt>
      <trkpt lat="44.69702" lon="5.49334">
        <ele>621</ele>
        <time>2020-03-29T15:25:54Z</time>
      </trkpt>
      <trkpt lat="44.69677" lon="5.49276">
        <ele>613</ele>
        <time>2020-03-29T15:26:11Z</time>
      </trkpt>
      <trkpt lat="44.69656" lon="5.49156">
        <ele>612</ele>
        <time>2020-03-29T15:26:40Z</time>
      </trkpt>
      <trkpt lat="44.69609" lon="5.49047">
        <ele>606</ele>
        <time>2020-03-29T15:27:10Z</time>
      </trkpt>
      <trkpt lat="44.69569" lon="5.49083">
        <ele>595</ele>
        <time>2020-03-29T15:27:26Z</time>
      </trkpt>
      <trkpt lat="44.69537" lon="5.49031">
        <ele>589</ele>
        <time>2020-03-29T15:27:42Z</time>
      </trkpt>
      <trkpt lat="44.69537" lon="5.48942">
        <ele>589</ele>
        <time>2020-03-29T15:28:03Z</time>
      </trkpt>
      <trkpt lat="44.69533" lon="5.48806">
        <ele>586</ele>
        <time>2020-03-29T15:28:36Z</time>
      </trkpt>
      <trkpt lat="44.69533" lon="5.48686">
        <ele>585</ele>
        <time>2020-03-29T15:29:04Z</time>
      </trkpt>
      <trkpt lat="44.6949" lon="5.48686">
        <ele>576</ele>
        <time>2020-03-29T15:29:18Z</time>
      </trkpt>
      <trkpt lat="44.69462" lon="5.48754">
        <ele>569</ele>
        <time>2020-03-29T15:29:37Z</time>
      </trkpt>
      <trkpt lat="44.69436" lon="5.4877">
        <ele>566</ele>
        <time>2020-03-29T15:29:46Z</time>
      </trkpt>
      <trkpt lat="44.69429" lon="5.48629">
        <ele>568</ele>
        <time>2020-03-29T15:30:20Z</time>
      </trkpt>
      <trkpt lat="44.69426" lon="5.48488">
        <ele>576</ele>
        <time>2020-03-29T15:30:53Z</time>
      </trkpt>
      <trkpt lat="44.69372" lon="5.48525">
        <ele>565</ele>
        <time>2020-03-29T15:31:14Z</time>
      </trkpt>
      <trkpt lat="44.69343" lon="5.48582">
        <ele>560</ele>
        <time>2020-03-29T15:31:30Z</time>
      </trkpt>
    </trkseg>
  </trk>
</gpx>